Indalo Segundo — CNA4665 — position and weather

sailwx.info

Track history (hours):
 
Tides and Currents Weather Stations Pressure Air Temp Water Temp Dewpoint Dewpoint Depression Visibility Wind Speed Wind Dir Waves Ship Positions

Indalo Segundo

Last reported at 2017-Sep-19 20:39 UTC. Time now 2017-Sep-25 09:59 UTC.
Position N 35°29' W 006°45'.

Length 25 m; draft 3 m.

Type: Fishing. MMSI: 242131100.

Date/timePositionNaut miles runAvg speedWind from/ knotsBaromVisibWave heightAir tempDewpointWater temp
2017-Sep-19 20:39N 35°29' W 006°45'1 2.7
2017-Sep-19 20:18N 35°29' W 006°44'  
2017-Sep-15 00:20N 35°27' W 006°50'6 0.2
2017-Sep-13 12:23N 35°23' W 006°54'1 2.7
2017-Sep-13 12:00N 35°23' W 006°53'0 0.8
2017-Sep-13 11:29N 35°23' W 006°53'1 2.0
2017-Sep-13 10:55N 35°24' W 006°53'2 3.0
2017-Sep-13 10:12N 35°26' W 006°51'1 3.0
2017-Sep-13 09:59N 35°26' W 006°51'2 2.9
2017-Sep-13 09:26N 35°27' W 006°50'3 0.6
2017-Sep-13 04:30N 35°25' W 006°52'2 0.0
2017-Sep-11 13:25N 35°27' W 006°51'  
Track history (hours):
 
Tides and Currents Weather Stations Pressure Air Temp Water Temp Dewpoint Dewpoint Depression Visibility Wind Speed Wind Dir Waves Ship Positions

Indalo Segundo

Last reported at 2017-Sep-19 20:39 UTC. Time now 2017-Sep-25 09:59 UTC.
Position N 35°29' W 006°45'.

Length 25 m; draft 3 m.

Type: Fishing. MMSI: 242131100.

Date/timePositionNaut miles runAvg speedWind from/ knotsBaromVisibWave heightAir tempDewpointWater temp
2017-Sep-19 20:39N 35°29' W 006°45'1 2.7
2017-Sep-19 20:18N 35°29' W 006°44'  
2017-Sep-15 00:20N 35°27' W 006°50'6 0.2
2017-Sep-13 12:23N 35°23' W 006°54'1 2.7
2017-Sep-13 12:00N 35°23' W 006°53'0 0.8
2017-Sep-13 11:29N 35°23' W 006°53'1 2.0
2017-Sep-13 10:55N 35°24' W 006°53'2 3.0
2017-Sep-13 10:12N 35°26' W 006°51'1 3.0
2017-Sep-13 09:59N 35°26' W 006°51'2 2.9
2017-Sep-13 09:26N 35°27' W 006°50'3 0.6
2017-Sep-13 04:30N 35°25' W 006°52'2 0.0
2017-Sep-11 13:25N 35°27' W 006°51'  

Dump ship's entire track history